sensor_id;sensor_type;location;lat;lon;timestamp;pressure;altitude;pressure_sealevel;temperature;humidity
30949;BME280;17637;51.984;21.208;2023-08-06T00:01:59;99133.38;;;18.84;94.84
30949;BME280;17637;51.984;21.208;2023-08-06T00:04:30;99131.97;;;18.88;94.83
30949;BME280;17637;51.984;21.208;2023-08-06T00:07:03;99109.75;;;18.62;95.47
30949;BME280;17637;51.984;21.208;2023-08-06T00:09:34;99134.31;;;18.76;95.42
30949;BME280;17637;51.984;21.208;2023-08-06T00:12:07;99101.06;;;18.62;95.57
30949;BME280;17637;51.984;21.208;2023-08-06T00:14:39;99116.09;;;18.75;95.62
30949;BME280;17637;51.984;21.208;2023-08-06T00:17:11;99113.88;;;18.72;96.12
30949;BME280;17637;51.984;21.208;2023-08-06T00:19:42;99096.03;;;18.67;95.27
30949;BME280;17637;51.984;21.208;2023-08-06T00:22:14;99112.03;;;18.72;95.42
30949;BME280;17637;51.984;21.208;2023-08-06T00:24:46;99096.84;;;18.67;94.88
30949;BME280;17637;51.984;21.208;2023-08-06T00:27:18;99097.44;;;18.63;95.23
30949;BME280;17637;51.984;21.208;2023-08-06T00:29:50;99113.31;;;18.83;95.56
30949;BME280;17637;51.984;21.208;2023-08-06T00:32:22;99107.47;;;18.52;96.08
30949;BME280;17637;51.984;21.208;2023-08-06T00:34:54;99106.56;;;18.67;96.48
30949;BME280;17637;51.984;21.208;2023-08-06T00:37:25;99099.06;;;18.64;96.30
30949;BME280;17637;51.984;21.208;2023-08-06T00:39:57;99091.47;;;18.47;96.34
30949;BME280;17637;51.984;21.208;2023-08-06T00:42:29;99093.34;;;18.53;96.83
30949;BME280;17637;51.984;21.208;2023-08-06T00:45:01;99090.03;;;18.45;97.42
30949;BME280;17637;51.984;21.208;2023-08-06T00:47:33;99090.88;;;18.52;97.69
30949;BME280;17637;51.984;21.208;2023-08-06T00:50:07;99077.69;;;18.45;97.32
30949;BME280;17637;51.984;21.208;2023-08-06T00:52:40;99041.53;;;18.19;97.93
30949;BME280;17637;51.984;21.208;2023-08-06T00:55:15;99070.53;;;18.32;97.90
30949;BME280;17637;51.984;21.208;2023-08-06T00:57:46;99071.16;;;18.34;97.47
30949;BME280;17637;51.984;21.208;2023-08-06T01:00:20;99070.75;;;18.38;97.58
30949;BME280;17637;51.984;21.208;2023-08-06T01:02:53;99068.56;;;18.41;97.42
30949;BME280;17637;51.984;21.208;2023-08-06T01:05:25;99026.47;;;18.06;98.37
30949;BME280;17637;51.984;21.208;2023-08-06T01:11:05;99033.94;;;18.38;98.54
30949;BME280;17637;51.984;21.208;2023-08-06T01:13:47;99029.69;;;18.36;98.75
30949;BME280;17637;51.984;21.208;2023-08-06T01:16:21;98980.44;;;18.17;98.51
30949;BME280;17637;51.984;21.208;2023-08-06T01:18:52;98955.25;;;18.01;98.42
30949;BME280;17637;51.984;21.208;2023-08-06T01:21:24;98987.34;;;18.25;98.54
30949;BME280;17637;51.984;21.208;2023-08-06T01:23:56;98973.19;;;18.26;98.24
30949;BME280;17637;51.984;21.208;2023-08-06T01:26:37;98939.34;;;18.09;99.19
30949;BME280;17637;51.984;21.208;2023-08-06T01:29:23;98964.25;;;18.20;99.69
30949;BME280;17637;51.984;21.208;2023-08-06T01:31:57;98954.78;;;18.19;99.71
30949;BME280;17637;51.984;21.208;2023-08-06T01:34:33;98947.72;;;18.26;99.25
30949;BME280;17637;51.984;21.208;2023-08-06T01:37:06;98923.56;;;18.09;99.44
30949;BME280;17637;51.984;21.208;2023-08-06T01:39:42;98928.47;;;18.19;99.50
30949;BME280;17637;51.984;21.208;2023-08-06T01:42:14;98923.16;;;18.12;98.92
30949;BME280;17637;51.984;21.208;2023-08-06T01:44:46;98929.72;;;18.23;98.78
30949;BME280;17637;51.984;21.208;2023-08-06T01:47:18;98931.56;;;18.29;98.46
30949;BME280;17637;51.984;21.208;2023-08-06T01:49:50;98916.72;;;18.15;99.18
30949;BME280;17637;51.984;21.208;2023-08-06T01:52:22;98904.41;;;18.22;98.55
30949;BME280;17637;51.984;21.208;2023-08-06T01:54:54;98908.91;;;18.35;98.27
30949;BME280;17637;51.984;21.208;2023-08-06T01:57:26;98916.41;;;18.38;98.51
30949;BME280;17637;51.984;21.208;2023-08-06T01:59:58;98910.75;;;18.34;98.74
30949;BME280;17637;51.984;21.208;2023-08-06T02:02:29;98879.34;;;18.26;98.91
30949;BME280;17637;51.984;21.208;2023-08-06T02:05:01;98890.09;;;18.31;98.55
30949;BME280;17637;51.984;21.208;2023-08-06T02:07:33;98889.88;;;18.33;98.86
30949;BME280;17637;51.984;21.208;2023-08-06T02:10:07;98902.91;;;18.48;98.09
30949;BME280;17637;51.984;21.208;2023-08-06T02:12:39;98874.31;;;18.31;98.10
30949;BME280;17637;51.984;21.208;2023-08-06T02:15:11;98875.38;;;18.37;98.44
30949;BME280;17637;51.984;21.208;2023-08-06T02:17:43;98861.22;;;18.45;97.84
30949;BME280;17637;51.984;21.208;2023-08-06T02:20:15;98871.91;;;18.43;98.29
30949;BME280;17637;51.984;21.208;2023-08-06T02:22:47;98892.78;;;18.45;98.14
30949;BME280;17637;51.984;21.208;2023-08-06T02:25:19;98854.06;;;18.25;98.30
30949;BME280;17637;51.984;21.208;2023-08-06T02:27:50;98895.47;;;18.65;97.39
30949;BME280;17637;51.984;21.208;2023-08-06T02:30:22;98838.34;;;18.39;96.65
30949;BME280;17637;51.984;21.208;2023-08-06T02:32:54;98887.78;;;18.63;96.66
30949;BME280;17637;51.984;21.208;2023-08-06T02:35:26;98897.09;;;18.73;96.64
30949;BME280;17637;51.984;21.208;2023-08-06T02:37:58;98885.13;;;18.57;97.31
30949;BME280;17637;51.984;21.208;2023-08-06T02:40:30;98878.06;;;18.64;96.93
30949;BME280;17637;51.984;21.208;2023-08-06T02:43:01;98885.16;;;18.70;96.88
30949;BME280;17637;51.984;21.208;2023-08-06T02:45:33;98862.09;;;18.59;97.22
30949;BME280;17637;51.984;21.208;2023-08-06T02:48:05;98854.41;;;18.64;96.52
30949;BME280;17637;51.984;21.208;2023-08-06T02:50:41;98845.06;;;18.55;97.27
30949;BME280;17637;51.984;21.208;2023-08-06T02:53:16;98850.34;;;18.61;97.21
30949;BME280;17637;51.984;21.208;2023-08-06T02:55:48;98824.44;;;18.58;97.30
30949;BME280;17637;51.984;21.208;2023-08-06T02:58:20;98829.69;;;18.65;97.51
30949;BME280;17637;51.984;21.208;2023-08-06T03:00:59;98811.91;;;18.60;97.71
30949;BME280;17637;51.984;21.208;2023-08-06T03:03:31;98790.22;;;18.58;97.07
30949;BME280;17637;51.984;21.208;2023-08-06T03:06:03;98803.81;;;18.62;97.74
30949;BME280;17637;51.984;21.208;2023-08-06T03:08:36;98806.84;;;18.72;97.20
30949;BME280;17637;51.984;21.208;2023-08-06T03:11:07;98797.94;;;18.66;96.96
30949;BME280;17637;51.984;21.208;2023-08-06T03:13:39;98764.94;;;18.50;97.43
30949;BME280;17637;51.984;21.208;2023-08-06T03:16:11;98760.88;;;18.55;96.90
30949;BME280;17637;51.984;21.208;2023-08-06T03:18:43;98766.16;;;18.61;97.61
30949;BME280;17637;51.984;21.208;2023-08-06T03:21:16;98777.06;;;18.58;98.99
30949;BME280;17637;51.984;21.208;2023-08-06T03:23:49;98771.03;;;18.64;98.25
30949;BME280;17637;51.984;21.208;2023-08-06T03:26:22;98764.13;;;18.57;98.58
30949;BME280;17637;51.984;21.208;2023-08-06T03:28:53;98760.91;;;18.61;98.56
30949;BME280;17637;51.984;21.208;2023-08-06T03:31:25;98758.28;;;18.61;98.62
30949;BME280;17637;51.984;21.208;2023-08-06T03:33:57;98754.81;;;18.67;97.93
30949;BME280;17637;51.984;21.208;2023-08-06T03:36:29;98752.00;;;18.76;97.68
30949;BME280;17637;51.984;21.208;2023-08-06T03:39:01;98747.34;;;18.78;97.55
30949;BME280;17637;51.984;21.208;2023-08-06T03:41:33;98740.84;;;18.80;97.34
30949;BME280;17637;51.984;21.208;2023-08-06T03:44:05;98743.09;;;18.77;97.61
30949;BME280;17637;51.984;21.208;2023-08-06T03:46:37;98728.53;;;18.74;97.75
30949;BME280;17637;51.984;21.208;2023-08-06T03:49:09;98721.84;;;18.72;97.46
30949;BME280;17637;51.984;21.208;2023-08-06T03:51:41;98722.84;;;18.77;97.54
30949;BME280;17637;51.984;21.208;2023-08-06T03:54:12;98730.56;;;18.92;96.51
30949;BME280;17637;51.984;21.208;2023-08-06T03:56:45;98719.03;;;18.93;96.49
30949;BME280;17637;51.984;21.208;2023-08-06T03:59:17;98707.09;;;18.97;96.14
30949;BME280;17637;51.984;21.208;2023-08-06T04:01:49;98694.53;;;18.79;97.05
30949;BME280;17637;51.984;21.208;2023-08-06T04:04:21;98693.69;;;18.85;96.98
30949;BME280;17637;51.984;21.208;2023-08-06T04:06:53;98704.44;;;18.97;96.32
30949;BME280;17637;51.984;21.208;2023-08-06T04:09:25;98669.41;;;18.83;96.28
30949;BME280;17637;51.984;21.208;2023-08-06T04:11:57;98658.28;;;18.81;96.29
30949;BME280;17637;51.984;21.208;2023-08-06T04:14:30;98694.50;;;19.13;95.77
30949;BME280;17637;51.984;21.208;2023-08-06T04:17:02;98685.59;;;19.07;96.01
30949;BME280;17637;51.984;21.208;2023-08-06T04:19:34;98690.84;;;19.14;95.13
30949;BME280;17637;51.984;21.208;2023-08-06T04:22:05;98686.78;;;19.18;95.04
30949;BME280;17637;51.984;21.208;2023-08-06T04:24:38;98680.69;;;19.17;94.75
30949;BME280;17637;51.984;21.208;2023-08-06T04:27:11;98681.50;;;19.25;94.60
30949;BME280;17637;51.984;21.208;2023-08-06T04:29:43;98664.91;;;19.17;95.04
30949;BME280;17637;51.984;21.208;2023-08-06T04:32:15;98645.28;;;19.13;94.76
30949;BME280;17637;51.984;21.208;2023-08-06T04:34:47;98660.41;;;19.31;94.16
30949;BME280;17637;51.984;21.208;2023-08-06T04:37:19;98655.31;;;19.43;93.70
30949;BME280;17637;51.984;21.208;2023-08-06T04:39:51;98650.44;;;19.40;93.06
30949;BME280;17637;51.984;21.208;2023-08-06T04:42:23;98631.13;;;19.53;92.81
30949;BME280;17637;51.984;21.208;2023-08-06T04:44:55;98630.25;;;19.66;92.71
30949;BME280;17637;51.984;21.208;2023-08-06T04:47:27;98640.59;;;19.67;92.72
30949;BME280;17637;51.984;21.208;2023-08-06T04:49:59;98611.25;;;19.57;92.07
30949;BME280;17637;51.984;21.208;2023-08-06T04:52:31;98635.25;;;19.81;91.54
30949;BME280;17637;51.984;21.208;2023-08-06T04:55:04;98628.41;;;19.73;91.48
30949;BME280;17637;51.984;21.208;2023-08-06T04:57:37;98619.84;;;19.85;91.21
30949;BME280;17637;51.984;21.208;2023-08-06T05:00:09;98628.69;;;19.97;90.93
30949;BME280;17637;51.984;21.208;2023-08-06T05:02:41;98611.91;;;19.91;89.77
30949;BME280;17637;51.984;21.208;2023-08-06T05:05:13;98603.56;;;19.94;89.33
30949;BME280;17637;51.984;21.208;2023-08-06T05:07:48;98598.44;;;19.99;89.20
30949;BME280;17637;51.984;21.208;2023-08-06T05:10:20;98611.16;;;20.09;88.15
30949;BME280;17637;51.984;21.208;2023-08-06T05:12:54;98601.38;;;20.16;87.19
30949;BME280;17637;51.984;21.208;2023-08-06T05:15:26;98603.09;;;20.29;87.12
30949;BME280;17637;51.984;21.208;2023-08-06T05:17:58;98595.19;;;20.29;86.76
30949;BME280;17637;51.984;21.208;2023-08-06T05:20:29;98593.88;;;20.39;85.78
30949;BME280;17637;51.984;21.208;2023-08-06T05:23:01;98586.91;;;20.44;84.75
30949;BME280;17637;51.984;21.208;2023-08-06T05:25:37;98590.69;;;20.55;84.38
30949;BME280;17637;51.984;21.208;2023-08-06T05:28:09;98557.53;;;20.41;84.04
30949;BME280;17637;51.984;21.208;2023-08-06T05:30:41;98564.00;;;20.45;82.97
30949;BME280;17637;51.984;21.208;2023-08-06T05:33:13;98582.38;;;20.77;82.31
30949;BME280;17637;51.984;21.208;2023-08-06T05:35:45;98567.59;;;20.69;82.37
30949;BME280;17637;51.984;21.208;2023-08-06T05:38:17;98557.94;;;21.00;82.21
30949;BME280;17637;51.984;21.208;2023-08-06T05:40:49;98571.50;;;21.34;81.38
30949;BME280;17637;51.984;21.208;2023-08-06T05:43:21;98570.38;;;21.60;78.73
30949;BME280;17637;51.984;21.208;2023-08-06T05:45:52;98575.38;;;21.81;78.97
30949;BME280;17637;51.984;21.208;2023-08-06T05:48:24;98564.41;;;21.35;77.77
30949;BME280;17637;51.984;21.208;2023-08-06T05:50:56;98578.97;;;21.56;77.84
30949;BME280;17637;51.984;21.208;2023-08-06T05:53:28;98559.38;;;21.75;77.57
30949;BME280;17637;51.984;21.208;2023-08-06T05:56:00;98574.72;;;22.09;76.46
30949;BME280;17637;51.984;21.208;2023-08-06T05:58:32;98565.25;;;21.89;76.29
30949;BME280;17637;51.984;21.208;2023-08-06T06:01:04;98561.13;;;22.29;76.52
30949;BME280;17637;51.984;21.208;2023-08-06T06:03:36;98553.69;;;22.38;75.37
30949;BME280;17637;51.984;21.208;2023-08-06T06:06:07;98548.63;;;22.24;73.91
30949;BME280;17637;51.984;21.208;2023-08-06T06:08:39;98549.06;;;22.09;74.82
30949;BME280;17637;51.984;21.208;2023-08-06T06:11:11;98552.28;;;22.71;74.23
30949;BME280;17637;51.984;21.208;2023-08-06T06:13:43;98539.81;;;22.83;72.86
30949;BME280;17637;51.984;21.208;2023-08-06T06:16:15;98546.97;;;23.12;72.40
30949;BME280;17637;51.984;21.208;2023-08-06T06:18:47;98532.69;;;23.24;71.37
30949;BME280;17637;51.984;21.208;2023-08-06T06:21:19;98530.25;;;23.11;72.30
30949;BME280;17637;51.984;21.208;2023-08-06T06:23:51;98529.88;;;23.02;71.69
30949;BME280;17637;51.984;21.208;2023-08-06T06:26:23;98510.34;;;22.80;72.15
30949;BME280;17637;51.984;21.208;2023-08-06T06:28:55;98516.22;;;23.10;71.58
30949;BME280;17637;51.984;21.208;2023-08-06T06:31:27;98524.63;;;23.19;69.81
30949;BME280;17637;51.984;21.208;2023-08-06T06:33:59;98518.31;;;23.20;71.47
30949;BME280;17637;51.984;21.208;2023-08-06T06:36:31;98506.53;;;23.16;70.73
30949;BME280;17637;51.984;21.208;2023-08-06T06:39:03;98509.78;;;23.18;70.59
30949;BME280;17637;51.984;21.208;2023-08-06T06:41:35;98518.16;;;23.61;70.35
30949;BME280;17637;51.984;21.208;2023-08-06T06:44:07;98510.09;;;23.68;69.81
30949;BME280;17637;51.984;21.208;2023-08-06T06:46:39;98505.88;;;23.38;68.50
30949;BME280;17637;51.984;21.208;2023-08-06T06:49:11;98506.84;;;23.49;68.75
30949;BME280;17637;51.984;21.208;2023-08-06T06:51:44;98513.13;;;23.77;68.65
30949;BME280;17637;51.984;21.208;2023-08-06T06:54:16;98515.69;;;23.88;69.08
30949;BME280;17637;51.984;21.208;2023-08-06T06:56:48;98499.69;;;23.49;69.40
30949;BME280;17637;51.984;21.208;2023-08-06T06:59:20;98494.41;;;23.49;69.77
30949;BME280;17637;51.984;21.208;2023-08-06T07:01:51;98487.19;;;23.45;68.63
30949;BME280;17637;51.984;21.208;2023-08-06T07:04:24;98488.13;;;23.55;68.21
30949;BME280;17637;51.984;21.208;2023-08-06T07:06:56;98500.72;;;24.16;67.73
30949;BME280;17637;51.984;21.208;2023-08-06T07:09:27;98480.84;;;24.36;67.17
30949;BME280;17637;51.984;21.208;2023-08-06T07:11:59;98506.72;;;24.68;65.30
30949;BME280;17637;51.984;21.208;2023-08-06T07:14:31;98483.63;;;24.46;66.42
30949;BME280;17637;51.984;21.208;2023-08-06T07:17:03;98484.78;;;24.55;65.23
30949;BME280;17637;51.984;21.208;2023-08-06T07:19:35;98473.38;;;24.77;63.76
30949;BME280;17637;51.984;21.208;2023-08-06T07:22:07;98492.16;;;24.70;63.80
30949;BME280;17637;51.984;21.208;2023-08-06T07:24:39;98501.44;;;24.95;63.78
30949;BME280;17637;51.984;21.208;2023-08-06T07:27:11;98486.00;;;25.19;64.33
30949;BME280;17637;51.984;21.208;2023-08-06T07:29:42;98502.44;;;25.11;63.01
30949;BME280;17637;51.984;21.208;2023-08-06T07:32:14;98488.09;;;25.40;63.30
30949;BME280;17637;51.984;21.208;2023-08-06T07:34:46;98478.19;;;25.35;63.29
30949;BME280;17637;51.984;21.208;2023-08-06T07:37:18;98493.72;;;25.81;62.68
30949;BME280;17637;51.984;21.208;2023-08-06T07:39:50;98484.13;;;25.80;61.70
30949;BME280;17637;51.984;21.208;2023-08-06T07:42:22;98471.53;;;25.65;62.37
30949;BME280;17637;51.984;21.208;2023-08-06T07:44:55;98479.19;;;25.99;61.60
30949;BME280;17637;51.984;21.208;2023-08-06T07:47:27;98487.84;;;26.16;61.13
30949;BME280;17637;51.984;21.208;2023-08-06T07:49:59;98492.59;;;26.09;61.08
30949;BME280;17637;51.984;21.208;2023-08-06T07:52:31;98485.13;;;26.06;61.72
30949;BME280;17637;51.984;21.208;2023-08-06T07:55:03;98489.53;;;26.38;61.11
30949;BME280;17637;51.984;21.208;2023-08-06T07:57:36;98490.34;;;26.39;60.64
30949;BME280;17637;51.984;21.208;2023-08-06T08:00:09;98463.72;;;25.96;60.46
30949;BME280;17637;51.984;21.208;2023-08-06T08:02:41;98469.78;;;26.29;61.40
30949;BME280;17637;51.984;21.208;2023-08-06T08:05:13;98457.88;;;26.47;60.25
30949;BME280;17637;51.984;21.208;2023-08-06T08:07:45;98465.34;;;26.45;59.50
30949;BME280;17637;51.984;21.208;2023-08-06T08:10:17;98467.03;;;26.66;59.86
30949;BME280;17637;51.984;21.208;2023-08-06T08:12:49;98464.66;;;26.75;59.38
30949;BME280;17637;51.984;21.208;2023-08-06T08:15:21;98415.59;;;26.56;59.10
30949;BME280;17637;51.984;21.208;2023-08-06T08:17:53;98471.41;;;27.04;58.96
30949;BME280;17637;51.984;21.208;2023-08-06T08:20:26;98443.94;;;27.13;59.41
30949;BME280;17637;51.984;21.208;2023-08-06T08:23:03;98457.28;;;27.13;57.48
30949;BME280;17637;51.984;21.208;2023-08-06T08:25:35;98462.88;;;27.17;56.74
30949;BME280;17637;51.984;21.208;2023-08-06T08:28:07;98458.28;;;26.87;58.36
30949;BME280;17637;51.984;21.208;2023-08-06T08:30:40;98463.88;;;26.75;58.41
30949;BME280;17637;51.984;21.208;2023-08-06T08:33:13;98440.75;;;27.16;58.15
30949;BME280;17637;51.984;21.208;2023-08-06T08:35:45;98434.63;;;27.16;57.71
30949;BME280;17637;51.984;21.208;2023-08-06T08:38:17;98423.97;;;27.42;58.03
30949;BME280;17637;51.984;21.208;2023-08-06T08:40:51;98437.03;;;27.38;57.53
30949;BME280;17637;51.984;21.208;2023-08-06T08:43:24;98458.38;;;27.54;56.69
30949;BME280;17637;51.984;21.208;2023-08-06T08:45:56;98427.94;;;27.60;56.16
30949;BME280;17637;51.984;21.208;2023-08-06T08:48:32;98434.63;;;27.78;56.30
30949;BME280;17637;51.984;21.208;2023-08-06T08:51:04;98442.03;;;27.96;55.88
30949;BME280;17637;51.984;21.208;2023-08-06T08:53:38;98430.09;;;27.68;56.56
30949;BME280;17637;51.984;21.208;2023-08-06T08:56:12;98405.03;;;27.64;56.23
30949;BME280;17637;51.984;21.208;2023-08-06T08:58:45;98410.56;;;27.93;55.59
30949;BME280;17637;51.984;21.208;2023-08-06T09:01:17;98418.28;;;28.05;55.39
30949;BME280;17637;51.984;21.208;2023-08-06T09:03:49;98395.50;;;28.23;54.62
30949;BME280;17637;51.984;21.208;2023-08-06T09:06:23;98416.75;;;28.49;54.00
30949;BME280;17637;51.984;21.208;2023-08-06T09:09:01;98402.88;;;28.42;53.69
30949;BME280;17637;51.984;21.208;2023-08-06T09:11:43;98414.81;;;27.94;53.28
30949;BME280;17637;51.984;21.208;2023-08-06T09:14:15;98414.00;;;27.99;54.06
30949;BME280;17637;51.984;21.208;2023-08-06T09:16:48;98415.75;;;28.35;54.92
30949;BME280;17637;51.984;21.208;2023-08-06T09:19:20;98386.75;;;28.02;52.86
30949;BME280;17637;51.984;21.208;2023-08-06T09:21:55;98426.16;;;28.36;52.43
30949;BME280;17637;51.984;21.208;2023-08-06T09:24:27;98409.53;;;28.94;52.25
30949;BME280;17637;51.984;21.208;2023-08-06T09:27:02;98389.81;;;29.20;51.68
30949;BME280;17637;51.984;21.208;2023-08-06T09:29:34;98395.84;;;29.06;52.42
30949;BME280;17637;51.984;21.208;2023-08-06T09:32:06;98399.66;;;29.29;51.43
30949;BME280;17637;51.984;21.208;2023-08-06T09:34:39;98402.56;;;28.99;51.00
30949;BME280;17637;51.984;21.208;2023-08-06T09:37:12;98390.06;;;28.89;51.22
30949;BME280;17637;51.984;21.208;2023-08-06T09:39:44;98400.31;;;29.11;50.50
30949;BME280;17637;51.984;21.208;2023-08-06T09:42:16;98396.09;;;28.70;50.08
30949;BME280;17637;51.984;21.208;2023-08-06T09:44:47;98393.53;;;28.89;50.83
30949;BME280;17637;51.984;21.208;2023-08-06T09:47:19;98377.34;;;28.75;50.30
30949;BME280;17637;51.984;21.208;2023-08-06T09:49:56;98387.59;;;28.97;50.61
30949;BME280;17637;51.984;21.208;2023-08-06T09:52:28;98368.28;;;28.71;49.38
30949;BME280;17637;51.984;21.208;2023-08-06T09:55:01;98373.50;;;28.87;50.36
30949;BME280;17637;51.984;21.208;2023-08-06T09:57:34;98362.16;;;28.65;49.29
30949;BME280;17637;51.984;21.208;2023-08-06T10:00:07;98370.69;;;29.07;50.61
30949;BME280;17637;51.984;21.208;2023-08-06T10:02:41;98342.09;;;28.73;49.34
30949;BME280;17637;51.984;21.208;2023-08-06T10:05:13;98361.81;;;29.12;50.00
30949;BME280;17637;51.984;21.208;2023-08-06T10:07:45;98347.34;;;29.18;49.01
30949;BME280;17637;51.984;21.208;2023-08-06T10:10:18;98352.28;;;29.35;49.02
30949;BME280;17637;51.984;21.208;2023-08-06T10:12:54;98357.28;;;29.42;48.42
30949;BME280;17637;51.984;21.208;2023-08-06T10:15:30;98347.88;;;29.44;47.85
30949;BME280;17637;51.984;21.208;2023-08-06T10:18:02;98349.91;;;29.58;47.91
30949;BME280;17637;51.984;21.208;2023-08-06T10:20:35;98336.28;;;29.54;47.31
30949;BME280;17637;51.984;21.208;2023-08-06T10:23:07;98311.91;;;29.32;48.06
30949;BME280;17637;51.984;21.208;2023-08-06T10:25:42;98348.13;;;29.48;47.52
30949;BME280;17637;51.984;21.208;2023-08-06T10:28:14;98340.63;;;29.50;48.37
30949;BME280;17637;51.984;21.208;2023-08-06T10:30:47;98333.06;;;29.57;49.33
30949;BME280;17637;51.984;21.208;2023-08-06T10:33:19;98345.41;;;29.53;47.77
30949;BME280;17637;51.984;21.208;2023-08-06T10:36:01;98336.28;;;29.54;47.13
30949;BME280;17637;51.984;21.208;2023-08-06T10:38:33;98303.09;;;29.31;49.13
30949;BME280;17637;51.984;21.208;2023-08-06T10:41:05;98303.09;;;29.79;48.75
30949;BME280;17637;51.984;21.208;2023-08-06T10:43:37;98327.03;;;30.14;48.03
30949;BME280;17637;51.984;21.208;2023-08-06T10:46:26;98314.28;;;30.25;46.22
30949;BME280;17637;51.984;21.208;2023-08-06T10:48:59;98306.19;;;30.11;46.85
30949;BME280;17637;51.984;21.208;2023-08-06T10:51:30;98316.88;;;29.92;45.93
30949;BME280;17637;51.984;21.208;2023-08-06T10:54:02;98301.41;;;29.89;45.19
30949;BME280;17637;51.984;21.208;2023-08-06T10:56:40;98313.84;;;29.99;45.33
30949;BME280;17637;51.984;21.208;2023-08-06T10:59:15;98296.06;;;29.84;46.17
30949;BME280;17637;51.984;21.208;2023-08-06T11:01:46;98307.16;;;29.77;47.08
30949;BME280;17637;51.984;21.208;2023-08-06T11:04:19;98295.63;;;29.76;45.35
30949;BME280;17637;51.984;21.208;2023-08-06T11:06:53;98281.50;;;29.95;43.80
30949;BME280;17637;51.984;21.208;2023-08-06T11:09:25;98283.78;;;29.83;44.34
30949;BME280;17637;51.984;21.208;2023-08-06T11:11:58;98270.97;;;30.04;44.53
30949;BME280;17637;51.984;21.208;2023-08-06T11:14:30;98273.47;;;30.33;45.17
30949;BME280;17637;51.984;21.208;2023-08-06T11:17:02;98301.56;;;30.36;44.44
30949;BME280;17637;51.984;21.208;2023-08-06T11:19:34;98263.34;;;30.11;43.03
30949;BME280;17637;51.984;21.208;2023-08-06T11:22:06;98258.13;;;30.20;44.19
30949;BME280;17637;51.984;21.208;2023-08-06T11:24:38;98262.63;;;30.05;44.32
30949;BME280;17637;51.984;21.208;2023-08-06T11:27:14;98263.47;;;30.20;43.69
30949;BME280;17637;51.984;21.208;2023-08-06T11:29:46;98234.78;;;30.06;43.29
30949;BME280;17637;51.984;21.208;2023-08-06T11:32:18;98220.78;;;30.09;44.04
30949;BME280;17637;51.984;21.208;2023-08-06T11:34:50;98265.16;;;29.97;43.00
30949;BME280;17637;51.984;21.208;2023-08-06T11:37:23;98262.88;;;29.85;42.76
30949;BME280;17637;51.984;21.208;2023-08-06T11:39:56;98252.66;;;29.87;44.64
30949;BME280;17637;51.984;21.208;2023-08-06T11:42:32;98254.59;;;30.05;43.73
30949;BME280;17637;51.984;21.208;2023-08-06T11:45:04;98231.22;;;29.92;43.58
30949;BME280;17637;51.984;21.208;2023-08-06T11:47:39;98236.38;;;30.07;43.01
30949;BME280;17637;51.984;21.208;2023-08-06T11:50:22;98233.19;;;30.05;43.79
30949;BME280;17637;51.984;21.208;2023-08-06T11:52:57;98208.56;;;30.03;41.23
30949;BME280;17637;51.984;21.208;2023-08-06T11:55:29;98218.44;;;29.65;43.20
30949;BME280;17637;51.984;21.208;2023-08-06T11:58:04;98223.69;;;29.26;42.04
30949;BME280;17637;51.984;21.208;2023-08-06T12:00:36;98242.47;;;29.21;43.83
30949;BME280;17637;51.984;21.208;2023-08-06T12:03:09;98255.56;;;28.99;43.25
30949;BME280;17637;51.984;21.208;2023-08-06T12:05:44;98239.28;;;28.95;44.35
30949;BME280;17637;51.984;21.208;2023-08-06T12:08:17;98227.69;;;28.80;46.10
30949;BME280;17637;51.984;21.208;2023-08-06T12:10:49;98248.47;;;28.84;46.87
30949;BME280;17637;51.984;21.208;2023-08-06T12:13:22;98243.22;;;28.73;46.45
30949;BME280;17637;51.984;21.208;2023-08-06T12:15:54;98242.09;;;28.45;46.63
30949;BME280;17637;51.984;21.208;2023-08-06T12:18:26;98210.94;;;28.35;47.51
30949;BME280;17637;51.984;21.208;2023-08-06T12:20:58;98219.06;;;28.20;47.90
30949;BME280;17637;51.984;21.208;2023-08-06T12:23:30;98262.72;;;28.34;47.92
30949;BME280;17637;51.984;21.208;2023-08-06T12:26:04;98230.38;;;28.06;48.65
30949;BME280;17637;51.984;21.208;2023-08-06T12:28:36;98226.13;;;27.95;48.66
30949;BME280;17637;51.984;21.208;2023-08-06T12:31:08;98252.50;;;28.02;49.17
30949;BME280;17637;51.984;21.208;2023-08-06T12:33:40;98243.00;;;27.85;49.89
30949;BME280;17637;51.984;21.208;2023-08-06T12:36:12;98231.03;;;27.77;49.90
30949;BME280;17637;51.984;21.208;2023-08-06T12:38:44;98224.75;;;27.58;50.87
30949;BME280;17637;51.984;21.208;2023-08-06T12:41:16;98263.59;;;27.74;51.21
30949;BME280;17637;51.984;21.208;2023-08-06T12:43:48;98282.38;;;27.48;53.99
30949;BME280;17637;51.984;21.208;2023-08-06T12:46:20;98269.59;;;27.25;55.28
30949;BME280;17637;51.984;21.208;2023-08-06T12:48:52;98303.25;;;27.05;56.77
30949;BME280;17637;51.984;21.208;2023-08-06T12:51:24;98329.28;;;26.36;59.52
30949;BME280;17637;51.984;21.208;2023-08-06T12:53:56;98321.22;;;25.52;62.86
30949;BME280;17637;51.984;21.208;2023-08-06T12:56:28;98303.78;;;25.71;62.13
30949;BME280;17637;51.984;21.208;2023-08-06T12:59:00;98295.41;;;26.11;63.18
30949;BME280;17637;51.984;21.208;2023-08-06T13:01:32;98251.53;;;26.44;62.59
30949;BME280;17637;51.984;21.208;2023-08-06T13:04:04;98283.78;;;26.99;61.87
30949;BME280;17637;51.984;21.208;2023-08-06T13:06:51;98280.03;;;27.11;60.44
30949;BME280;17637;51.984;21.208;2023-08-06T13:09:23;98263.00;;;27.07;59.79
30949;BME280;17637;51.984;21.208;2023-08-06T13:11:56;98248.31;;;27.14;59.88
30949;BME280;17637;51.984;21.208;2023-08-06T13:14:28;98254.66;;;27.44;60.29
30949;BME280;17637;51.984;21.208;2023-08-06T13:17:01;98264.41;;;27.70;59.87
30949;BME280;17637;51.984;21.208;2023-08-06T13:19:33;98241.31;;;27.44;59.46
30949;BME280;17637;51.984;21.208;2023-08-06T13:22:05;98245.78;;;27.59;59.55